createdAt,value
2019-03-08T00:01:34.559Z,6.50
2019-03-08T00:04:05.272Z,6.60
2019-03-08T00:06:38.547Z,6.70
2019-03-08T00:09:09.182Z,6.70
2019-03-08T00:11:39.567Z,6.70
2019-03-08T00:14:17.306Z,6.80
2019-03-08T00:16:49.431Z,6.80
2019-03-08T00:19:19.459Z,6.70
2019-03-08T00:21:55.216Z,6.70
2019-03-08T00:24:25.253Z,6.70
2019-03-08T00:27:02.199Z,6.60
2019-03-08T00:29:38.301Z,6.60
2019-03-08T00:32:16.375Z,6.60
2019-03-08T00:34:52.857Z,6.60
2019-03-08T00:37:18.181Z,6.50
2019-03-08T00:39:52.997Z,6.40
2019-03-08T00:42:28.658Z,6.30
2019-03-08T00:45:00.415Z,6.10
2019-03-08T00:47:33.281Z,6.00
2019-03-08T00:50:16.555Z,6.00
2019-03-08T00:52:41.945Z,5.90
2019-03-08T00:55:15.398Z,5.70
2019-03-08T00:57:55.725Z,5.50
2019-03-08T01:00:37.580Z,5.40
2019-03-08T01:03:10.896Z,5.40
2019-03-08T01:05:43.252Z,5.40
2019-03-08T01:08:17.748Z,5.20
2019-03-08T01:10:49.820Z,5.20
2019-03-08T01:13:33.560Z,5.30
2019-03-08T01:17:44.769Z,5.40
2019-03-08T01:18:27.551Z,5.40
2019-03-08T01:21:07.513Z,5.30
2019-03-08T01:23:43.258Z,5.30
2019-03-08T01:26:13.904Z,5.10
2019-03-08T01:28:53.035Z,5.00
2019-03-08T01:31:31.144Z,4.80
2019-03-08T01:34:06.890Z,4.70
2019-03-08T01:36:41.126Z,4.60
2019-03-08T01:39:16.037Z,4.60
2019-03-08T01:41:52.313Z,4.60
2019-03-08T01:44:22.267Z,4.50
2019-03-08T01:46:56.710Z,4.60
2019-03-08T01:49:26.950Z,4.50
2019-03-08T01:52:11.617Z,4.40
2019-03-08T01:54:45.836Z,4.40
2019-03-08T01:57:16.151Z,4.40
2019-03-08T01:59:54.382Z,4.40
2019-03-08T02:02:26.931Z,4.30
2019-03-08T02:04:56.947Z,4.40
2019-03-08T02:07:28.537Z,4.30
2019-03-08T02:10:10.919Z,4.40
2019-03-08T02:12:44.725Z,4.30
2019-03-08T02:15:18.390Z,4.30
2019-03-08T02:17:50.524Z,4.30
2019-03-08T02:20:26.209Z,4.20
2019-03-08T02:23:06.706Z,4.00
2019-03-08T02:25:39.171Z,4.00
2019-03-08T02:28:09.508Z,3.90
2019-03-08T02:30:44.275Z,3.80
2019-03-08T02:33:26.285Z,3.60
2019-03-08T02:36:01.944Z,3.60
2019-03-08T02:38:34.150Z,3.60
2019-03-08T02:41:05.612Z,3.80
2019-03-08T02:43:37.888Z,3.60
2019-03-08T02:46:13.115Z,3.60
2019-03-08T02:48:49.905Z,3.50
2019-03-08T02:51:32.237Z,3.40
2019-03-08T02:53:58.941Z,3.30
2019-03-08T02:56:36.421Z,3.30
2019-03-08T02:59:11.058Z,3.20
2019-03-08T03:01:49.930Z,3.00
2019-03-08T03:04:20.102Z,2.90
2019-03-08T03:06:56.983Z,3.00
2019-03-08T03:09:29.877Z,3.10
2019-03-08T03:12:13.211Z,3.10
2019-03-08T03:14:43.225Z,3.10
2019-03-08T03:17:15.644Z,3.00
2019-03-08T03:19:50.343Z,2.90
2019-03-08T03:22:32.045Z,2.80
2019-03-08T03:25:14.885Z,2.90
2019-03-08T03:27:46.720Z,3.00
2019-03-08T03:30:28.491Z,2.80
2019-03-08T03:33:45.334Z,2.70
2019-03-08T03:35:27.904Z,2.60
2019-03-08T03:38:00.299Z,2.50
2019-03-08T03:40:30.488Z,2.40
2019-03-08T03:43:09.133Z,2.50
2019-03-08T03:45:40.897Z,2.30
2019-03-08T03:48:20.015Z,2.20
2019-03-08T03:50:53.012Z,2.20
2019-03-08T03:53:28.761Z,2.10
2019-03-08T03:56:03.889Z,2.00
2019-03-08T03:58:34.021Z,2.00
2019-03-08T04:01:41.001Z,2.00
2019-03-08T04:04:23.206Z,2.10
2019-03-08T04:06:44.414Z,1.90
2019-03-08T04:09:23.039Z,1.90
2019-03-08T04:12:01.055Z,1.80
2019-03-08T04:14:56.473Z,2.00
2019-03-08T04:17:17.268Z,1.90
2019-03-08T04:19:52.575Z,1.80
2019-03-08T04:22:26.179Z,1.70
2019-03-08T04:24:56.196Z,1.70
2019-03-08T04:27:33.017Z,1.70
2019-03-08T04:30:02.991Z,1.80
2019-03-08T04:32:40.085Z,1.70
2019-03-08T04:35:17.993Z,1.60
2019-03-08T04:37:48.027Z,1.60
2019-03-08T04:40:31.564Z,1.70
2019-03-08T04:43:04.439Z,1.60
2019-03-08T04:45:37.446Z,1.50
2019-03-08T04:48:10.727Z,1.50
2019-03-08T04:50:49.234Z,1.50
2019-03-08T04:53:20.556Z,1.50
2019-03-08T04:55:52.016Z,1.40
2019-03-08T04:58:31.009Z,1.30
2019-03-08T05:01:03.397Z,1.40
2019-03-08T05:03:35.686Z,1.20
2019-03-08T05:06:08.568Z,1.20
2019-03-08T05:08:46.016Z,1.10
2019-03-08T05:11:18.956Z,1.10
2019-03-08T05:13:49.102Z,1.00
2019-03-08T05:16:25.510Z,1.10
2019-03-08T05:19:04.546Z,1.00
2019-03-08T05:21:44.135Z,1.00
2019-03-08T05:24:14.177Z,1.00
2019-03-08T05:26:45.762Z,1.00
2019-03-08T05:29:18.376Z,1.00
2019-03-08T05:31:59.550Z,1.10
2019-03-08T05:34:29.151Z,1.20
2019-03-08T05:37:13.753Z,1.10
2019-03-08T05:39:43.084Z,1.00
2019-03-08T05:42:14.903Z,0.90
2019-03-08T05:44:59.388Z,0.80
2019-03-08T05:47:26.184Z,0.70
2019-03-08T05:50:03.354Z,0.70
2019-03-08T05:52:39.083Z,0.80
2019-03-08T05:55:21.276Z,0.70
2019-03-08T05:58:03.228Z,0.70
2019-03-08T06:00:37.831Z,0.60
2019-03-08T06:03:05.285Z,0.60
2019-03-08T06:05:42.797Z,0.50
2019-03-08T06:08:16.493Z,0.70
2019-03-08T06:11:01.932Z,0.70
2019-03-08T06:13:23.216Z,0.60
2019-03-08T06:15:53.395Z,0.50
2019-03-08T06:18:33.163Z,0.50
2019-03-08T06:21:04.939Z,0.50
2019-03-08T06:23:39.142Z,0.50
2019-03-08T06:26:08.587Z,0.40
2019-03-08T06:28:46.677Z,0.40
2019-03-08T06:31:33.246Z,0.40
2019-03-08T06:33:58.001Z,0.40
2019-03-08T06:36:42.939Z,0.40
2019-03-08T06:39:10.999Z,0.60
2019-03-08T06:41:49.701Z,0.50
2019-03-08T06:44:21.419Z,0.60
2019-03-08T06:47:01.631Z,0.50
2019-03-08T06:49:26.341Z,0.40
2019-03-08T06:52:03.203Z,0.50
2019-03-08T06:54:53.195Z,0.70
2019-03-08T06:57:17.387Z,1.00
2019-03-08T06:59:56.561Z,0.90
2019-03-08T07:02:32.498Z,1.00
2019-03-08T07:05:03.881Z,1.20
2019-03-08T07:07:49.742Z,1.20
2019-03-08T07:10:19.614Z,1.30
2019-03-08T07:13:02.774Z,1.30
2019-03-08T07:15:24.252Z,1.50
2019-03-08T07:18:00.935Z,1.60
2019-03-08T07:20:55.194Z,1.90
2019-03-08T07:23:48.070Z,2.10
2019-03-08T07:26:35.191Z,2.30
2019-03-08T07:29:31.670Z,2.40
2019-03-08T07:32:23.323Z,2.60
2019-03-08T07:35:21.194Z,2.80
2019-03-08T07:38:22.973Z,3.00
2019-03-08T07:41:06.453Z,3.10
2019-03-08T07:43:56.375Z,3.30
2019-03-08T07:46:42.222Z,3.40
2019-03-08T07:49:32.632Z,3.60
2019-03-08T07:52:26.706Z,3.70
2019-03-08T07:55:21.223Z,3.90
2019-03-08T07:58:15.851Z,4.00
2019-03-08T08:01:09.227Z,4.30
2019-03-08T08:04:19.362Z,4.60
2019-03-08T08:06:56.961Z,4.70
2019-03-08T08:09:50.252Z,4.70
2019-03-08T08:12:46.875Z,4.90
2019-03-08T08:15:54.145Z,5.00
2019-03-08T08:18:33.792Z,5.10
2019-03-08T08:21:37.301Z,5.30
2019-03-08T08:24:18.437Z,5.40
2019-03-08T08:27:17.939Z,5.40
2019-03-08T08:30:12.063Z,5.60
2019-03-08T08:33:43.632Z,5.60
2019-03-08T08:36:18.792Z,5.80
2019-03-08T08:39:02.839Z,5.90
2019-03-08T08:41:58.611Z,6.10
2019-03-08T08:46:03.555Z,6.30
2019-03-08T08:48:01.133Z,6.50
2019-03-08T08:50:49.994Z,6.40
2019-03-08T08:53:54.390Z,6.40
2019-03-08T08:56:45.435Z,6.70
2019-03-08T08:59:26.614Z,6.70
2019-03-08T09:02:19.737Z,6.70
2019-03-08T09:05:04.826Z,6.80
2019-03-08T09:07:56.357Z,6.80
2019-03-08T09:10:53.457Z,6.90
2019-03-08T09:14:04.909Z,7.10
2019-03-08T09:16:24.678Z,7.20
2019-03-08T09:19:19.444Z,7.30
2019-03-08T09:22:21.983Z,7.30
2019-03-08T09:25:15.298Z,7.40
2019-03-08T09:27:54.982Z,7.80
2019-03-08T09:30:50.644Z,7.70
2019-03-08T09:33:54.726Z,8.00
2019-03-08T09:37:00.352Z,8.70
2019-03-08T09:40:07.850Z,8.80
2019-03-08T09:43:01.123Z,9.10
2019-03-08T09:46:00.217Z,8.90
2019-03-08T09:48:48.186Z,8.50
2019-03-08T09:51:55.964Z,8.40
2019-03-08T09:54:30.585Z,8.40
2019-03-08T09:57:24.279Z,8.50
2019-03-08T10:00:17.123Z,8.50
2019-03-08T10:02:53.139Z,8.60
2019-03-08T10:06:07.829Z,8.90
2019-03-08T10:08:29.661Z,8.90
2019-03-08T10:11:19.343Z,8.80
2019-03-08T10:14:13.314Z,8.70
2019-03-08T10:16:41.142Z,8.90
2019-03-08T10:19:39.686Z,8.90
2019-03-08T10:22:46.803Z,8.90
2019-03-08T10:25:38.908Z,9.00
2019-03-08T10:28:25.843Z,8.90
2019-03-08T10:31:22.611Z,9.00
2019-03-08T10:34:19.674Z,9.10
2019-03-08T10:37:10.144Z,9.00
2019-03-08T10:40:09.496Z,9.10
2019-03-08T10:46:15.647Z,9.00
2019-03-08T10:49:03.618Z,9.10
2019-03-08T10:52:21.279Z,9.40
2019-03-08T10:54:53.485Z,9.30
2019-03-08T10:57:55.308Z,9.30
2019-03-08T11:00:45.752Z,9.30
2019-03-08T11:04:45.217Z,9.30
2019-03-08T11:06:21.941Z,9.30
2019-03-08T11:09:16.060Z,9.20
2019-03-08T11:12:07.531Z,9.30
2019-03-08T11:14:54.853Z,9.30
2019-03-08T11:18:00.341Z,9.20
2019-03-08T11:20:53.562Z,9.20
2019-03-08T11:23:30.552Z,9.30
2019-03-08T11:26:51.645Z,9.40
2019-03-08T11:29:47.073Z,9.30
2019-03-08T11:32:28.264Z,9.30
2019-03-08T11:35:27.023Z,9.10
2019-03-08T11:38:14.780Z,9.10
2019-03-08T11:41:12.442Z,9.00
2019-03-08T11:44:03.534Z,8.80
2019-03-08T11:46:55.338Z,8.90
2019-03-08T11:50:02.011Z,8.80
2019-03-08T11:52:59.996Z,8.90
2019-03-08T11:55:24.107Z,9.10
2019-03-08T11:58:11.254Z,9.10
2019-03-08T12:00:56.813Z,9.20
2019-03-08T12:03:54.364Z,9.20
2019-03-08T12:06:54.169Z,9.10
2019-03-08T12:09:54.436Z,9.10
2019-03-08T12:12:43.805Z,9.00
2019-03-08T12:17:05.823Z,9.10
2019-03-08T12:18:45.242Z,9.10
2019-03-08T12:21:43.236Z,9.20
2019-03-08T12:24:26.147Z,9.20
2019-03-08T12:27:20.748Z,9.10
2019-03-08T12:30:07.653Z,9.20
2019-03-08T12:33:11.566Z,9.30
2019-03-08T12:35:50.393Z,9.40
2019-03-08T12:38:47.420Z,9.30
2019-03-08T12:41:42.265Z,9.30
2019-03-08T12:44:36.823Z,9.30
2019-03-08T12:47:33.603Z,9.40
2019-03-08T12:50:11.809Z,9.70
2019-03-08T12:53:27.175Z,9.90
2019-03-08T12:56:08.245Z,9.90
2019-03-08T12:59:08.707Z,9.80
2019-03-08T13:02:09.957Z,9.70
2019-03-08T13:04:55.935Z,9.60
2019-03-08T13:07:43.792Z,9.60
2019-03-08T13:10:14.712Z,9.90
2019-03-08T13:12:53.827Z,9.90
2019-03-08T13:15:23.944Z,10.10
2019-03-08T13:17:54.170Z,10.20
2019-03-08T13:20:26.588Z,10.20
2019-03-08T13:22:56.568Z,10.20
2019-03-08T13:25:28.787Z,10.30
2019-03-08T13:28:00.398Z,10.20
2019-03-08T13:30:30.518Z,10.20
2019-03-08T13:33:07.814Z,10.30
2019-03-08T13:35:45.376Z,10.50
2019-03-08T13:38:18.692Z,10.60
2019-03-08T13:40:50.956Z,10.50
2019-03-08T13:43:20.885Z,10.30
2019-03-08T13:45:56.817Z,10.20
2019-03-08T13:48:28.602Z,10.20
2019-03-08T13:50:58.487Z,10.20
2019-03-08T13:53:31.680Z,10.20
2019-03-08T13:56:01.805Z,10.20
2019-03-08T13:58:32.052Z,10.20
2019-03-08T14:01:03.918Z,10.20
2019-03-08T14:03:37.072Z,10.30
2019-03-08T14:06:10.481Z,10.30
2019-03-08T14:08:40.357Z,10.20
2019-03-08T14:11:14.623Z,10.00
2019-03-08T14:13:44.527Z,10.00
2019-03-08T14:16:14.665Z,10.00
2019-03-08T14:18:48.348Z,10.00
2019-03-08T14:21:25.883Z,9.90
2019-03-08T14:23:56.329Z,9.90
2019-03-08T14:26:26.322Z,9.80
2019-03-08T14:28:56.374Z,9.60
2019-03-08T14:31:32.693Z,9.30
2019-03-08T14:34:05.579Z,9.20
2019-03-08T14:36:39.135Z,9.00
2019-03-08T14:39:09.895Z,8.80
2019-03-08T14:41:45.976Z,8.70
2019-03-08T14:44:37.888Z,8.60
2019-03-08T14:47:29.467Z,8.60
2019-03-08T14:50:00.310Z,8.50
2019-03-08T14:52:41.234Z,8.50
2019-03-08T14:55:22.641Z,8.60
2019-03-08T14:57:49.858Z,8.60
2019-03-08T15:00:29.048Z,8.60
2019-03-08T15:03:03.163Z,8.50
2019-03-08T15:05:31.811Z,8.50
2019-03-08T15:08:13.683Z,8.50
2019-03-08T15:10:47.318Z,8.60
2019-03-08T15:13:23.946Z,8.70
2019-03-08T15:16:07.733Z,8.80
2019-03-08T15:18:35.255Z,8.90
2019-03-08T15:21:10.212Z,8.90
2019-03-08T15:23:54.404Z,9.00
2019-03-08T15:26:24.104Z,9.00
2019-03-08T15:28:48.010Z,9.10
2019-03-08T15:31:22.376Z,9.00
2019-03-08T15:33:59.029Z,8.90
2019-03-08T15:36:30.839Z,9.00
2019-03-08T15:39:10.232Z,9.00
2019-03-08T15:41:50.592Z,9.00
2019-03-08T15:44:15.794Z,9.00
2019-03-08T15:46:59.285Z,9.00
2019-03-08T15:49:21.048Z,9.00
2019-03-08T15:51:59.900Z,9.10
2019-03-08T15:57:17.498Z,9.00
2019-03-08T16:00:41.643Z,9.00
2019-03-08T16:02:26.446Z,8.90
2019-03-08T16:05:06.539Z,8.80
2019-03-08T16:07:46.557Z,8.80
2019-03-08T16:10:15.347Z,8.70
2019-03-08T16:13:05.640Z,8.80
2019-03-08T16:15:49.519Z,8.80
2019-03-08T16:18:32.711Z,8.80
2019-03-08T16:21:02.970Z,8.80
2019-03-08T16:23:32.774Z,8.80
2019-03-08T16:26:11.113Z,8.80
2019-03-08T16:28:48.650Z,8.90
2019-03-08T16:31:25.665Z,8.90
2019-03-08T16:33:58.825Z,8.80
2019-03-08T16:36:37.889Z,8.70
2019-03-08T16:39:26.215Z,8.60
2019-03-08T16:42:14.902Z,8.60
2019-03-08T16:45:02.119Z,8.50
2019-03-08T16:47:59.862Z,8.50
2019-03-08T16:50:56.084Z,8.40
2019-03-08T16:53:51.116Z,8.40
2019-03-08T16:56:44.824Z,8.30
2019-03-08T16:59:49.725Z,8.30
2019-03-08T17:02:41.149Z,8.30
2019-03-08T17:05:44.786Z,8.30
2019-03-08T17:08:45.727Z,8.30
2019-03-08T17:11:54.351Z,8.30
2019-03-08T17:14:43.550Z,8.20
2019-03-08T17:17:36.253Z,8.30
2019-03-08T17:20:41.821Z,8.30
2019-03-08T17:23:24.727Z,8.30
2019-03-08T17:26:28.323Z,8.30
2019-03-08T17:29:08.374Z,8.20
2019-03-08T17:31:54.530Z,8.20
2019-03-08T17:34:48.351Z,8.20
2019-03-08T17:37:45.901Z,8.30
2019-03-08T17:40:44.562Z,8.20
2019-03-08T17:43:38.329Z,8.10
2019-03-08T17:46:30.195Z,8.10
2019-03-08T17:49:15.375Z,7.90
2019-03-08T17:52:04.084Z,7.90
2019-03-08T17:54:55.010Z,7.90
2019-03-08T17:57:54.169Z,7.90
2019-03-08T18:00:38.933Z,7.90
2019-03-08T18:03:14.886Z,7.90
2019-03-08T18:06:14.220Z,7.80
2019-03-08T18:09:00.702Z,7.80
2019-03-08T18:11:54.301Z,7.70
2019-03-08T18:14:42.822Z,7.70
2019-03-08T18:17:29.265Z,7.60
2019-03-08T18:20:24.504Z,7.60
2019-03-08T18:23:29.568Z,7.60
2019-03-08T18:26:20.915Z,7.60
2019-03-08T18:29:10.805Z,7.70
2019-03-08T18:31:49.834Z,7.70
2019-03-08T18:34:47.683Z,7.60
2019-03-08T18:37:32.789Z,7.60
2019-03-08T18:40:18.568Z,7.60
2019-03-08T18:43:23.369Z,7.60
2019-03-08T18:46:10.364Z,7.60
2019-03-08T18:48:54.295Z,7.60
2019-03-08T18:51:55.573Z,7.60
2019-03-08T18:54:48.527Z,7.60
2019-03-08T18:57:44.288Z,7.60
2019-03-08T19:00:34.902Z,7.50
2019-03-08T19:03:22.534Z,7.60
2019-03-08T19:06:00.106Z,7.60
2019-03-08T19:08:54.151Z,7.60
2019-03-08T19:11:50.648Z,7.50
2019-03-08T19:14:41.406Z,7.50
2019-03-08T19:17:28.546Z,7.60
2019-03-08T19:20:20.130Z,7.60
2019-03-08T19:23:08.645Z,7.60
2019-03-08T19:25:56.013Z,7.60
2019-03-08T19:28:57.877Z,7.70
2019-03-08T19:31:45.939Z,7.70
2019-03-08T19:34:43.640Z,7.70
2019-03-08T19:37:38.701Z,7.70
2019-03-08T19:40:32.406Z,7.70
2019-03-08T19:43:21.023Z,7.70
2019-03-08T19:46:24.796Z,7.70
2019-03-08T19:49:27.721Z,7.70
2019-03-08T19:52:34.289Z,7.70
2019-03-08T19:55:20.865Z,7.80
2019-03-08T19:58:10.117Z,7.80
2019-03-08T20:01:08.568Z,7.80
2019-03-08T20:04:10.066Z,7.80
2019-03-08T20:07:14.225Z,7.80
2019-03-08T20:10:02.898Z,7.80
2019-03-08T20:13:08.288Z,7.90
2019-03-08T20:16:01.149Z,7.90
2019-03-08T20:18:49.678Z,7.90
2019-03-08T20:21:42.488Z,7.90
2019-03-08T20:24:38.300Z,7.90
2019-03-08T20:27:30.488Z,7.90
2019-03-08T20:30:15.124Z,8.00
2019-03-08T20:32:59.085Z,8.00
2019-03-08T20:35:42.637Z,8.00
2019-03-08T20:38:40.658Z,8.00
2019-03-08T20:41:23.896Z,8.00
2019-03-08T20:44:13.761Z,8.10
2019-03-08T20:46:45.777Z,8.10
2019-03-08T20:49:17.663Z,8.10
2019-03-08T20:51:52.130Z,8.20
2019-03-08T20:54:23.929Z,8.20
2019-03-08T20:57:04.248Z,8.20
2019-03-08T20:59:42.712Z,8.20
2019-03-08T21:02:13.205Z,8.20
2019-03-08T21:04:52.267Z,8.30
2019-03-08T21:07:25.673Z,8.30
2019-03-08T21:10:01.531Z,8.30
2019-03-08T21:12:33.794Z,8.40
2019-03-08T21:15:04.248Z,8.40
2019-03-08T21:17:49.549Z,8.40
2019-03-08T21:20:20.828Z,8.40
2019-03-08T21:22:51.098Z,8.50
2019-03-08T21:25:33.564Z,8.50
2019-03-08T21:27:55.350Z,8.50
2019-03-08T21:30:44.655Z,8.50
2019-03-08T21:33:14.927Z,8.60
2019-03-08T21:35:45.139Z,8.60
2019-03-08T21:38:23.888Z,8.70
2019-03-08T21:40:59.378Z,8.70
2019-03-08T21:43:29.736Z,8.70
2019-03-08T21:46:15.490Z,8.80
2019-03-08T21:48:41.240Z,8.90
2019-03-08T21:51:14.538Z,9.00
2019-03-08T21:54:01.591Z,9.00
2019-03-08T21:56:31.415Z,9.00
2019-03-08T21:59:05.645Z,9.10
2019-03-08T22:01:38.429Z,9.10
2019-03-08T22:04:23.458Z,9.10
2019-03-08T22:06:55.130Z,9.10
2019-03-08T22:09:48.884Z,9.10
2019-03-08T22:12:18.973Z,9.20
2019-03-08T22:14:53.772Z,9.20
2019-03-08T22:17:20.983Z,9.20
2019-03-08T22:19:51.078Z,9.30
2019-03-08T22:22:28.289Z,9.30
2019-03-08T22:24:55.790Z,9.40
2019-03-08T22:27:43.319Z,9.30
2019-03-08T22:30:21.639Z,9.10
2019-03-08T22:33:04.143Z,9.10
2019-03-08T22:35:41.036Z,8.90
2019-03-08T22:38:12.871Z,8.80
2019-03-08T22:40:42.896Z,8.80
2019-03-08T22:43:18.311Z,9.00
2019-03-08T23:13:52.099Z,8.50
2019-03-08T23:16:26.287Z,8.50
2019-03-08T23:18:56.234Z,8.50
2019-03-08T23:21:29.211Z,8.60
2019-03-08T23:24:03.812Z,8.50
2019-03-08T23:26:54.081Z,8.50
2019-03-08T23:29:33.420Z,8.50
2019-03-08T23:32:13.739Z,8.50
2019-03-08T23:35:01.139Z,8.40
2019-03-08T23:37:36.828Z,8.50
2019-03-08T23:40:07.281Z,8.40
2019-03-08T23:42:41.623Z,8.40
2019-03-08T23:45:14.072Z,8.40
2019-03-08T23:47:55.535Z,8.30
2019-03-08T23:50:31.246Z,8.20
2019-03-08T23:53:02.920Z,8.10
2019-03-08T23:55:39.973Z,8.30
2019-03-08T23:58:07.432Z,8.30
